Hauptseite
METAR-TAF:

METAR-TAF

Flughäfen :

Flughafen Girona

Girona, Spanien

Breite: 41-54N, Länge: 002-46E, Höhe: 143 m

Beobachtung

Neuester Wetterbericht von vor 34 Minuten, um 19:00 UTC
Wind 3 kt aus West
Temperatur 17°C
Luftfeuchtigkeit 88%
Luftdruck 1017 hPa
Sichtweite 10 km oder mehr
keine Wolken unter 1500 m und keine Kumulonimbus oder Gewitterwolken

METAR: LEGE 211900Z 27003KT CAVOK 17/15 Q1017

Zeit: 21:34 (19:34 UTC)

Prognose

Neuester Wetterbericht von vor 2 Stunden und 34 Minuten, um 17:00 UTC
Gültige Prognose vom 21 um 18 UTC bis 22 um 18 UTC
Wind 3 kt aus unterschiedlichen Richtungen
Sichtweite 10 km oder mehr
Leicht bewölkt in der Höhe von 4000 ft
Übergehend zu
vom 22 um 02 UTC bis 22 um 04 UTC
Wind 10 kt aus Nord

TAF: LEGE 211700Z 2118/2218 VRB03KT 9999 FEW040 TX21/2213Z TN12/2206Z BECMG 2202/2204 36010KT

Wetterbeobachtungen und Prognosen von mehr als 4000 Flughäfen (METAR und TAF Bericht).

Die verfügbaren Stationen werden durch gelbe und rote Markierungen auf der Karte dargestellt.

Führen Sie die Maus auf sie, um den Namen der Station zu sehen.

Darauf klicken, um die Beobachtung von Wetterbeobachtungen und Prognosen zu sehen.

Um die Karte zu ändern : klicken Sie auf den grünen Tasten mit einem schwarzen Kreuz Zum Vergrößern, auf den grünen Button mit einem Gedankenstrich zu verkleinern, oder auf die grünen Pfeile für benachbarte Karten.


METAR-TAF: